Pagrindinis puslapis
METAR-TAF:

METAR-TAF

Oro uostai :

Poris, Suomija

platuma: 61-28N, ilguma: 021-48E, Aukštis: 13 m

Dabartinis oras

Ataskaita buvo paskelbta 28 minutes, ne 04:50 UTC
Vėjas 7 kt iš Pietų
Temperatūra 15°C
Drėgmė 88%
Slėgis 1012 hPa
Matomumas 10 km arba daugiau

METAR: EFPO 200450Z AUTO 17007KT 9999 FEW016/// 15/13 Q1012

Laikas: 08:18 (05:18 UTC)

Prognozė

Ataskaita buvo paskelbta 2 valandos ir 41 minutes, ne 02:37 UTC
Prognozė galioja nuo 20 metu 03 UTC su 20 metu 12 UTC
Vėjas 5 kt iš Pietų
Matomumas 10 km arba daugiau
nėra debesų žemiau 1500 m ir nėra kamuolinių lietaus debesų
Tikimybė 30%
nuo 20 metu 03 UTC su 20 metu 05 UTC
Matomumas: 3500 m
rūkana
Tikimybė 30% :
Laikinai
nuo 20 metu 08 UTC su 20 metu 12 UTC
Mažai debesys ne aukštis 2500 ft, Liūtiniai kamuoliniai debesys.

TAF: EFPO 200237Z 2003/2012 17005KT CAVOK PROB30 2003/2005 3500 BR PROB30 TEMPO 2008/2012 FEW025CB

Orai ataskaitas ir orų prognozės (METAR, TAF).

turimą stotys yra geltonos ir raudonos taškus žemėlapyje.

Perkelti pele per norėdami pamatyti stoties vardą.

Tada spustelėkite, norėdami matyti oro stebėjimo ir prognozės.

Norėdami pakeisti žemėlapį: spustelėkite ant žalios mygtukų su juodo kryžiaus žemyn,; žalią mygtuką su brūkšneliu, jei norite nutolinti; arba žalių rodyklių gretimoms žemėlapius.


METAR-TAF: